Knight Air

Knight Air knights of the virtual airways


 METAR AND TAF INFORMATION
METAR FOR DTTA
ADDS - METARS form results

(1521 UTC 30 September 2020)
Data provider http://aviationweather.gov/metar/data/
 
METAR text: DTTA 301500Z 01010KT 340V040 9999 FEW030 28/16 Q1011
Conditions at: DTTA (TUNIS/CARTHAGE , TN) observed 1500 UTC 30 September 2020
Temperature: 28.0°C (82°F)
Dewpoint: 16.0°C (61°F) [RH = 48%]
Pressure (altimeter): 29.85 inches Hg (1011.0 mb)
Winds: from the N (10 degrees) at 12 MPH (10 knots; 5.1 m/s)
Visibility: 6 or more miles (10+ km)
Ceiling: at least 12,000 feet AGL
Clouds: few clouds at 3000 feet AGL
Weather: no significant weather observed at this time

METAR text: DTTA 301430Z 01010KT 340V040 9999 FEW030 29/14 Q1011
Conditions at: DTTA (TUNIS/CARTHAGE , TN) observed 1430 UTC 30 September 2020
Temperature: 29.0°C (84°F)
Dewpoint: 14.0°C (57°F) [RH = 40%]
Pressure (altimeter): 29.85 inches Hg (1011.0 mb)
Winds: from the N (10 degrees) at 12 MPH (10 knots; 5.1 m/s)
Visibility: 6 or more miles (10+ km)
Ceiling: at least 12,000 feet AGL
Clouds: few clouds at 3000 feet AGL
Weather: no significant weather observed at this time

Forecast for: DTTA (TUNIS/CARTHAGE , TN)
Text: TAF DTTA 301100Z 3012/0112 VRB03KT 8000 FEW026
Forecast period: 1200 UTC 30 September 2020 to 0000 UTC 01 October 2020
Forecast type: FROM: standard forecast or significant change
Winds: variable direction winds at 3 MPH (3 knots; 1.5 m/s)
Visibility: 5 miles (8 km)
Ceiling: at least 12,000 feet AGL
Clouds: few clouds at 2600 feet AGL
Weather: no significant weather forecast for this period
Text: BECMG 0100/0102 34015KT
Forecast period: 0000 to 1200 UTC 01 October 2020
Forecast type: BECOMING: Conditions expected to become as follows by 0200 UTC 01 October 2020
Winds: from the NNW (340 degrees) at 17 MPH (15 knots; 7.7 m/s)
Visibility: 5 miles (8 km)
Ceiling: at least 12,000 feet AGL
Clouds: few clouds at 2600 feet AGL
Weather: no significant weather forecast for this period

 AIRPORT MAP

 RUNWAY INFORMATION
Runway 01 Runway length 10499 ft Runway width 148 ft
Runway elevation 13 ft Runway displaced threshold 0 ft Runway heading 12
Runway 19 Runway length 10499 ft Runway width 148 ft
Runway elevation 21 ft Runway displaced threshold 0 ft Runway heading 192
Runway 11 Runway length 9318 ft Runway width 148 ft
Runway elevation 19 ft Runway displaced threshold 0 ft Runway heading 113
Runway 29 Runway length 9318 ft Runway width 148 ft
Runway elevation 11 ft Runway displaced threshold 657 ft Runway heading 293

 AIRPORT FREQUENCIES
Type APP Name TUNIS APP Frequency 121.2 MHZ
Type ATIS Name TUNIS ATIS Frequency 118.675 MHZ
Type GND Name TUNIS GND Frequency 121.9 MHZ
Type TWR Name TUNIS TWR Frequency 118.1 MHZ

 AIRPORT NEAR NAVIGATION AIDS
Type NDB Name Tunis Frequency 386 KHZ
Type NDB Name Tunis Frequency 325 KHZ
Type VOR-DME Name Tunis Frequency 116500 KHZ